createdAt,value
2019-06-26T00:11:04.882Z,102080
2019-06-26T00:23:04.856Z,102090
2019-06-26T00:35:04.792Z,102090
2019-06-26T00:47:04.831Z,102100
2019-06-26T00:59:04.873Z,102110
2019-06-26T01:11:04.818Z,102110
2019-06-26T01:23:04.852Z,102110
2019-06-26T01:35:04.862Z,102120
2019-06-26T01:47:04.821Z,102120
2019-06-26T01:59:04.869Z,102120
2019-06-26T02:11:04.864Z,102120
2019-06-26T02:23:04.884Z,102130
2019-06-26T02:35:09.371Z,102150
2019-06-26T02:47:18.877Z,102160
2019-06-26T02:59:04.829Z,102160
2019-06-26T03:11:04.861Z,102170
2019-06-26T03:23:04.809Z,102170
2019-06-26T03:35:04.870Z,102180
2019-06-26T03:47:04.851Z,102190
2019-06-26T03:59:04.885Z,102200
2019-06-26T04:11:04.878Z,102210
2019-06-26T04:23:04.820Z,102220
2019-06-26T04:35:04.854Z,102230
2019-06-26T04:47:04.880Z,102220
2019-06-26T04:59:04.797Z,102230
2019-06-26T05:11:04.802Z,102240
2019-06-26T05:23:04.879Z,102240
2019-06-26T05:35:04.860Z,102240
2019-06-26T05:47:07.071Z,102230
2019-06-26T05:59:04.791Z,102250
2019-06-26T06:11:05.419Z,102260
2019-06-26T06:23:04.802Z,102250
2019-06-26T06:35:04.828Z,102260
2019-06-26T06:47:06.677Z,102270
2019-06-26T06:59:04.872Z,102270
2019-06-26T07:11:04.861Z,102290
2019-06-26T07:23:04.827Z,102310
2019-06-26T07:35:04.872Z,102310
2019-06-26T07:47:12.742Z,102330
2019-06-26T07:59:04.856Z,102340
2019-06-26T08:11:06.508Z,102340
2019-06-26T08:23:04.954Z,102340
2019-06-26T08:35:04.903Z,102350
2019-06-26T08:47:04.866Z,102350
2019-06-26T08:59:04.873Z,102350
2019-06-26T09:11:04.848Z,102350
2019-06-26T09:23:04.824Z,102360
2019-06-26T09:35:04.847Z,102370
2019-06-26T09:47:04.830Z,102370
2019-06-26T09:59:04.779Z,102360
2019-06-26T10:11:04.852Z,102360
2019-06-26T10:23:05.084Z,102350
2019-06-26T10:35:04.949Z,102330
2019-06-26T10:47:04.854Z,102330
2019-06-26T10:59:04.804Z,102330
2019-06-26T11:11:04.942Z,102330
2019-06-26T11:23:04.875Z,102320
2019-06-26T11:35:04.864Z,102330
2019-06-26T11:47:04.961Z,102320
2019-06-26T11:59:04.771Z,102310
2019-06-26T12:11:04.834Z,102310
2019-06-26T12:23:04.827Z,102300
2019-06-26T12:35:04.798Z,102290
2019-06-26T12:47:04.850Z,102280
2019-06-26T12:59:04.856Z,102280
2019-06-26T13:11:04.852Z,102280
2019-06-26T13:23:04.877Z,102280
2019-06-26T13:35:04.805Z,102280
2019-06-26T13:47:04.837Z,102280
2019-06-26T13:59:07.364Z,102280
2019-06-26T14:11:07.453Z,102280
2019-06-26T14:23:04.847Z,102280
2019-06-26T14:35:04.876Z,102280
2019-06-26T14:47:04.889Z,102280
2019-06-26T14:59:04.836Z,102270
2019-06-26T15:11:04.805Z,102270
2019-06-26T15:23:04.834Z,102250
2019-06-26T15:35:04.967Z,102240
2019-06-26T15:47:04.818Z,102240
2019-06-26T15:59:04.832Z,102230
2019-06-26T16:11:04.849Z,102210
2019-06-26T16:23:04.785Z,102200
2019-06-26T16:35:05.322Z,102200
2019-06-26T16:47:04.883Z,102210
2019-06-26T16:59:04.825Z,102200
2019-06-26T17:11:04.841Z,102220
2019-06-26T17:23:06.265Z,102210
2019-06-26T17:35:04.830Z,102220
2019-06-26T17:47:05.572Z,102220
2019-06-26T17:59:04.820Z,102220
2019-06-26T18:11:04.848Z,102230
2019-06-26T18:23:07.374Z,102230
2019-06-26T18:35:05.337Z,102240
2019-06-26T18:47:04.832Z,102250
2019-06-26T18:59:04.916Z,102250
2019-06-26T19:11:04.853Z,102250
2019-06-26T19:23:04.840Z,102260
2019-06-26T19:35:18.213Z,102270
2019-06-26T19:47:04.871Z,102280
2019-06-26T19:59:04.881Z,102290
2019-06-26T20:11:05.302Z,102290
2019-06-26T20:23:04.814Z,102310
2019-06-26T20:35:04.839Z,102320
2019-06-26T20:47:04.892Z,102340
2019-06-26T20:59:05.260Z,102340
2019-06-26T21:11:04.857Z,102350
2019-06-26T21:23:17.455Z,102350
2019-06-26T21:35:04.856Z,102350
2019-06-26T21:47:05.178Z,102360
2019-06-26T21:59:04.835Z,102370
2019-06-26T22:11:04.863Z,102380
2019-06-26T22:23:04.819Z,102390
2019-06-26T22:35:04.810Z,102400
2019-06-26T22:47:04.772Z,102410
2019-06-26T22:59:04.862Z,102420
2019-06-26T23:11:04.851Z,102430
2019-06-26T23:23:04.840Z,102430
2019-06-26T23:35:04.900Z,102440
2019-06-26T23:47:04.796Z,102450
2019-06-26T23:59:04.797Z,102470
